Long Branch, Texas
Current Conditions -  °F | °C
As of 1:15 PM on Friday 21 Nov 2014 (Local Time) from KRFI Reporting Station
Overcast Overcast  
Wind Chill: 15°   Ceiling: 500
Heat Index: 15°   Visibility: 10mi
Dew Point: 15°   Wind: 7mph
Humidity: 100%   Direction: 150°SSE
Pressure: 30.15"   Gusts: NA
Location:  32°N, 94.53°W
Report Text: KRFI 211915Z AUTO 15006KT 10SM OVC005 15/15 A3015 RMK AO2 T01520152
Loading
Personal Weather Stations






























Interactive Weather Map New forecast layout! Learn more

10-Day Weather Forecast

Advertisements
Track Severe Weather on mobile